Time;durP1;ratioP1;P1;durP2;ratioP2;P2;SDS_P1;SDS_P2;PMS_P1;PMS_P2;Temp;Humidity;BMP_temperature;BMP_pressure;BME280_temperature;BME280_humidity;BME280_pressure;Samples;Min_cycle;Max_cycle;Signal;HPM_P1;HPM_P2
2022/01/12 00:00:52;;;;;;;47.85;20.70;;;;;;;-3.31;100.00;99202.94;5095013;28;20031;-74
2022/01/12 00:03:18;;;;;;;48.67;20.05;;;;;;;-3.34;100.00;99200.63;5096238;28;20022;-74
2022/01/12 00:05:44;;;;;;;48.28;20.08;;;;;;;-3.32;100.00;99207.44;5096327;28;20032;-74
2022/01/12 00:08:10;;;;;;;46.85;20.60;;;;;;;-3.48;100.00;99207.56;5096278;28;20384;-74
2022/01/12 00:10:36;;;;;;;49.55;19.15;;;;;;;-3.47;100.00;99201.19;5096125;28;20077;-74
2022/01/12 00:13:01;;;;;;;45.75;19.70;;;;;;;-3.39;100.00;99203.84;5096249;28;20450;-74
2022/01/12 00:15:27;;;;;;;52.38;20.85;;;;;;;-3.43;100.00;99202.50;5096055;28;20030;-74
2022/01/12 00:17:52;;;;;;;42.13;18.20;;;;;;;-3.48;100.00;99191.53;5096135;28;20032;-74
2022/01/12 00:20:17;;;;;;;52.95;20.52;;;;;;;-3.56;100.00;99199.56;5096011;28;20034;-74
2022/01/12 00:22:43;;;;;;;50.85;20.38;;;;;;;-3.52;100.00;99197.38;5096485;28;20086;-74
2022/01/12 00:33:14;;;;;;;55.30;22.05;;;;;;;-3.79;100.00;99209.38;5116528;28;20034;-74
2022/01/12 00:35:46;;;;;;;57.80;22.88;;;;;;;-3.80;100.00;99202.38;5114310;27;20495;-74
2022/01/12 00:38:13;;;;;;;56.05;20.25;;;;;;;-3.84;100.00;99222.41;5111899;28;20491;-74
2022/01/12 00:40:48;;;;;;;53.67;20.85;;;;;;;-3.81;100.00;99224.72;5113109;28;20023;-74
2022/01/12 00:43:15;;;;;;;56.95;20.55;;;;;;;-3.78;100.00;99224.38;5113028;28;20020;-74
2022/01/12 00:45:45;;;;;;;45.83;20.45;;;;;;;-3.83;100.00;99234.78;5113328;28;20399;-74
2022/01/12 00:48:12;;;;;;;54.10;20.67;;;;;;;-3.79;100.00;99230.75;5111875;28;20036;-75
2022/01/12 00:50:38;;;;;;;50.28;19.88;;;;;;;-3.73;100.00;99243.44;5113525;28;20019;-74
2022/01/12 00:53:04;;;;;;;46.65;19.25;;;;;;;-3.85;100.00;99239.44;5113771;28;20032;-75
2022/01/12 00:55:34;;;;;;;45.45;19.55;;;;;;;-3.78;100.00;99249.28;5112974;28;20126;-74
2022/01/12 00:58:00;;;;;;;42.72;18.70;;;;;;;-3.84;100.00;99246.47;5112447;28;20134;-74
2022/01/12 01:00:27;;;;;;;44.90;18.33;;;;;;;-3.91;100.00;99240.97;5112918;28;20110;-74
2022/01/12 01:02:54;;;;;;;50.35;19.08;;;;;;;-3.84;100.00;99241.13;5112861;28;20004;-74
2022/01/12 01:05:24;;;;;;;43.10;18.63;;;;;;;-3.79;100.00;99244.94;5112539;28;20391;-74
2022/01/12 01:07:51;;;;;;;43.90;18.50;;;;;;;-3.82;100.00;99249.78;5112748;27;20019;-74
2022/01/12 01:10:28;;;;;;;47.10;18.58;;;;;;;-3.78;100.00;99243.09;5112457;28;20487;-74
2022/01/12 01:12:54;;;;;;;36.00;16.83;;;;;;;-3.81;100.00;99256.81;5112547;27;20030;-74
2022/01/12 01:15:28;;;;;;;43.40;17.25;;;;;;;-3.96;100.00;99254.00;5112009;28;20391;-74
2022/01/12 01:26:05;;;;;;;42.20;17.15;;;;;;;-3.89;100.00;99275.53;5112316;28;20088;-74
2022/01/12 01:28:31;;;;;;;40.47;16.65;;;;;;;-3.91;100.00;99283.72;5112056;28;20430;-74
2022/01/12 01:30:56;;;;;;;42.40;17.88;;;;;;;-3.97;100.00;99276.38;5112553;28;20036;-74
2022/01/12 01:33:22;;;;;;;45.60;18.45;;;;;;;-4.02;100.00;99281.41;5111917;28;20078;-74
2022/01/12 01:35:54;;;;;;;46.38;18.08;;;;;;;-3.99;100.00;99275.72;5112133;28;20032;-74
2022/01/12 01:38:19;;;;;;;44.22;17.27;;;;;;;-3.85;100.00;99280.34;5111747;27;20468;-74
2022/01/12 01:40:45;;;;;;;45.95;17.42;;;;;;;-3.87;100.00;99286.88;5111926;28;20039;-74
2022/01/12 01:43:22;;;;;;;39.42;16.90;;;;;;;-3.83;100.00;99272.19;5112356;28;20023;-77
2022/01/12 01:54:00;;;;;;;44.45;18.27;;;;;;;-3.87;100.00;99278.88;5111637;28;20050;-74
2022/01/12 01:56:25;;;;;;;37.22;16.30;;;;;;;-4.01;100.00;99272.38;5111354;27;20044;-74
2022/01/12 01:58:51;;;;;;;43.05;17.63;;;;;;;-4.02;100.00;99277.91;5111471;28;20036;-74
2022/01/12 02:01:17;;;;;;;42.22;17.83;;;;;;;-4.03;100.00;99276.22;5110546;28;20016;-74
2022/01/12 02:03:43;;;;;;;48.92;19.63;;;;;;;-4.06;100.00;99274.72;5111769;28;20476;-74
2022/01/12 02:06:10;;;;;;;43.38;18.40;;;;;;;-4.07;100.00;99270.38;5111560;28;20525;-74
2022/01/12 02:08:36;;;;;;;43.95;17.65;;;;;;;-4.14;100.00;99265.91;5111267;27;20035;-74
2022/01/12 02:11:02;;;;;;;36.47;15.95;;;;;;;-4.11;100.00;99263.75;5111564;28;20023;-74
2022/01/12 02:13:28;;;;;;;44.30;17.00;;;;;;;-4.09;100.00;99274.22;5111310;28;20020;-74
2022/01/12 02:15:55;;;;;;;49.13;17.90;;;;;;;-4.12;100.00;99270.06;5111087;28;20038;-74
2022/01/12 02:35:19;;;;;;;47.83;17.90;;;;;;;-4.21;100.00;99275.59;5089907;28;20084;-74
2022/01/12 02:40:36;;;;;;;42.50;16.90;;;;;;;-4.17;100.00;99279.59;5112502;28;20046;-75
2022/01/12 02:43:14;;;;;;;44.17;16.60;;;;;;;-4.14;100.00;99292.63;5108806;28;20084;-74
2022/01/12 02:53:39;;;;;;;45.15;17.75;;;;;;;-4.23;100.00;99293.63;5090042;28;20527;-75
2022/01/12 02:56:09;;;;;;;40.92;17.40;;;;;;;-4.29;100.00;99295.13;5089923;28;20480;-74
2022/01/12 02:58:36;;;;;;;36.28;16.20;;;;;;;-4.26;100.00;99299.31;5088980;28;20028;-75
2022/01/12 03:01:31;;;;;;;39.63;15.82;;;;;;;-4.36;100.00;99300.31;5090639;28;20024;-76
2022/01/12 03:03:54;;;;;;;47.45;17.25;;;;;;;-4.43;100.00;99317.16;5089591;28;20036;-75
2022/01/12 03:06:33;;;;;;;42.20;18.52;;;;;;;-4.46;100.00;99310.31;5089784;28;20028;-74
2022/01/12 03:09:00;;;;;;;41.58;16.55;;;;;;;-4.48;100.00;99317.63;5109761;28;20577;-76
2022/01/12 03:11:27;;;;;;;40.45;17.38;;;;;;;-4.51;100.00;99309.97;5110145;28;20118;-75
2022/01/12 03:13:53;;;;;;;41.72;18.27;;;;;;;-4.50;100.00;99316.16;5110272;28;20046;-74
2022/01/12 03:16:23;;;;;;;62.85;18.08;;;;;;;-4.36;100.00;99319.00;5109712;28;20042;-75
2022/01/12 03:18:54;;;;;;;42.83;16.35;;;;;;;-4.52;100.00;99304.81;5109846;28;20027;-75
2022/01/12 03:21:23;;;;;;;47.22;18.15;;;;;;;-4.43;100.00;99315.31;5110174;28;20097;-74
2022/01/12 03:23:49;;;;;;;40.03;17.50;;;;;;;-4.52;100.00;99313.66;5110149;28;20059;-76
2022/01/12 03:26:15;;;;;;;39.40;16.95;;;;;;;-4.56;100.00;99314.13;5096133;28;20052;-74
2022/01/12 03:28:42;;;;;;;47.53;16.65;;;;;;;-4.55;100.00;99313.16;5091389;28;20460;-75
2022/01/12 03:31:17;;;;;;;38.05;16.08;;;;;;;-4.53;100.00;99319.16;5110430;28;20024;-75
2022/01/12 03:38:54;;;;;;;36.22;15.25;;;;;;;-4.61;100.00;99303.97;5110276;28;20035;-75
2022/01/12 03:41:20;;;;;;;37.90;16.67;;;;;;;-4.52;100.00;99327.00;5110304;28;20030;-75
2022/01/12 03:43:46;;;;;;;37.08;16.77;;;;;;;-4.62;100.00;99328.16;5111323;28;20103;-75
2022/01/12 03:46:13;;;;;;;45.95;18.33;;;;;;;-4.74;100.00;99332.97;5110977;28;20365;-74
2022/01/12 03:48:38;;;;;;;44.53;17.45;;;;;;;-4.73;100.00;99321.28;5110696;28;20027;-75
2022/01/12 03:51:04;;;;;;;37.85;15.55;;;;;;;-4.67;100.00;99336.66;5110315;28;20092;-76
2022/01/12 03:53:29;;;;;;;39.88;16.20;;;;;;;-4.72;100.00;99330.97;5109849;28;20027;-75
2022/01/12 03:55:54;;;;;;;36.38;15.90;;;;;;;-4.65;100.00;99325.81;5110006;28;20031;-75
2022/01/12 03:58:20;;;;;;;41.80;15.52;;;;;;;-4.56;100.00;99330.16;5112590;28;20042;-75
2022/01/12 04:00:45;;;;;;;40.47;15.10;;;;;;;-4.57;100.00;99331.97;5113567;28;20016;-74
2022/01/12 04:03:13;;;;;;;37.35;16.08;;;;;;;-4.58;100.00;99338.34;5109985;28;20024;-74
2022/01/12 04:08:21;;;;;;;39.85;16.70;;;;;;;-4.64;100.00;99339.00;5109817;28;20024;-75
2022/01/12 04:10:53;;;;;;;31.60;15.65;;;;;;;-4.49;100.00;99345.34;5112248;28;20035;-74
2022/01/12 04:13:22;;;;;;;44.88;16.77;;;;;;;-4.54;100.00;99345.00;5113439;28;20414;-75
2022/01/12 04:15:50;;;;;;;36.88;14.82;;;;;;;-4.62;100.00;99344.16;5113400;28;20519;-75
2022/01/12 04:18:15;;;;;;;37.90;15.60;;;;;;;-4.58;100.00;99343.69;5111998;28;20038;-74
2022/01/12 04:20:46;;;;;;;39.67;16.60;;;;;;;-4.70;100.00;99336.16;5113530;28;20479;-74
2022/01/12 04:23:19;;;;;;;50.65;17.38;;;;;;;-4.68;100.00;99348.31;5113494;28;20077;-74
2022/01/12 04:25:57;;;;;;;42.40;18.00;;;;;;;-4.71;100.00;99354.00;5112960;28;20494;-75
2022/01/12 04:28:24;;;;;;;37.75;15.55;;;;;;;-4.69;100.00;99357.31;5113454;28;20612;-75
2022/01/12 04:30:51;;;;;;;40.05;16.40;;;;;;;-4.76;100.00;99364.31;5114668;28;20020;-75
2022/01/12 04:33:18;;;;;;;41.55;16.95;;;;;;;-4.66;100.00;99364.16;5113046;28;20027;-74
2022/01/12 04:35:48;;;;;;;39.80;14.57;;;;;;;-4.77;100.00;99362.66;5112843;28;20036;-74
2022/01/12 04:38:15;;;;;;;47.92;18.45;;;;;;;-4.68;100.00;99369.69;5112733;28;20023;-74
2022/01/12 04:40:42;;;;;;;45.03;18.95;;;;;;;-4.81;100.00;99360.47;5112979;28;20023;-75
2022/01/12 04:43:08;;;;;;;42.00;18.10;;;;;;;-4.77;100.00;99365.31;5111599;28;20023;-75
2022/01/12 04:48:08;;;;;;;38.65;15.23;;;;;;;-4.72;100.00;99378.16;5112616;28;20043;-74
2022/01/12 04:50:37;;;;;;;42.35;16.05;;;;;;;-4.80;100.00;99373.66;5112887;28;20062;-74
2022/01/12 04:53:04;;;;;;;40.88;17.10;;;;;;;-4.88;100.00;99381.63;5112904;28;20034;-74
2022/01/12 04:55:29;;;;;;;37.13;15.60;;;;;;;-4.85;100.00;99386.63;5112651;28;20055;-74
2022/01/12 04:57:55;;;;;;;40.60;16.92;;;;;;;-4.74;100.00;99391.69;5112647;28;20818;-74
2022/01/12 05:00:22;;;;;;;33.30;15.02;;;;;;;-4.71;100.00;99390.50;5112822;28;20575;-75
2022/01/12 05:13:40;;;;;;;41.03;16.08;;;;;;;-5.21;100.00;99398.50;5111799;28;20180;-74
2022/01/12 05:16:06;;;;;;;44.35;17.55;;;;;;;-5.18;100.00;99411.50;5111453;28;20034;-75
2022/01/12 05:18:34;;;;;;;41.40;16.60;;;;;;;-5.21;100.00;99414.50;5112049;28;20749;-75
2022/01/12 05:21:00;;;;;;;39.35;16.20;;;;;;;-5.22;100.00;99419.00;5111813;28;20023;-74
2022/01/12 05:23:27;;;;;;;44.72;16.33;;;;;;;-5.30;100.00;99426.13;5110799;28;20031;-74
2022/01/12 05:25:53;;;;;;;41.00;18.35;;;;;;;-5.21;100.00;99422.50;5113123;28;20483;-74
2022/01/12 05:28:20;;;;;;;40.03;17.35;;;;;;;-5.21;100.00;99426.00;5112133;28;20016;-74
2022/01/12 05:30:46;;;;;;;36.63;16.95;;;;;;;-5.17;100.00;99429.19;5112316;28;20027;-75
2022/01/12 05:33:11;;;;;;;42.22;16.80;;;;;;;-5.13;100.00;99436.69;5112064;28;20024;-74
2022/01/12 05:35:37;;;;;;;37.47;16.70;;;;;;;-5.14;100.00;99432.38;5111993;28;20083;-75
2022/01/12 05:38:04;;;;;;;37.53;14.85;;;;;;;-5.10;100.00;99438.19;5112190;28;20020;-74
2022/01/12 05:40:31;;;;;;;39.30;16.27;;;;;;;-5.11;100.00;99440.06;5111867;28;20483;-75
2022/01/12 05:43:00;;;;;;;40.58;16.48;;;;;;;-5.16;100.00;99439.69;5111366;28;20504;-74
2022/01/12 05:45:25;;;;;;;37.70;16.23;;;;;;;-5.25;100.00;99447.78;5110442;28;20147;-74
2022/01/12 05:50:18;;;;;;;44.25;16.30;;;;;;;-5.24;100.00;99454.81;5111392;28;20024;-74
2022/01/12 05:52:44;;;;;;;44.85;17.42;;;;;;;-5.20;100.00;99466.84;5111519;28;20035;-74
2022/01/12 05:55:11;;;;;;;45.08;17.10;;;;;;;-5.16;100.00;99461.00;5111708;28;20449;-74
2022/01/12 05:57:37;;;;;;;42.72;17.92;;;;;;;-5.23;100.00;99459.16;5111151;28;20048;-74
2022/01/12 06:00:11;;;;;;;42.47;17.65;;;;;;;-5.30;100.00;99458.09;5111370;28;20029;-74
2022/01/12 06:02:37;;;;;;;39.67;17.27;;;;;;;-5.30;100.00;99468.75;5111530;28;20051;-74
2022/01/12 06:05:03;;;;;;;67.55;27.98;;;;;;;-5.18;100.00;99479.00;5111129;28;20120;-74
2022/01/12 06:07:29;;;;;;;45.13;20.73;;;;;;;-5.14;100.00;99474.19;5111488;28;20448;-74
2022/01/12 06:09:54;;;;;;;47.33;19.02;;;;;;;-5.14;100.00;99482.19;5111934;28;20095;-74
2022/01/12 06:12:20;;;;;;;45.35;19.73;;;;;;;-5.06;100.00;99488.41;5115343;28;20391;-76
2022/01/12 06:14:45;;;;;;;46.58;18.58;;;;;;;-5.10;100.00;99487.03;5112414;28;20392;-75
2022/01/12 06:17:11;;;;;;;39.42;17.98;;;;;;;-5.00;100.00;99498.44;5110142;28;20035;-74
2022/01/12 06:19:37;;;;;;;43.17;17.92;;;;;;;-5.00;100.00;99502.94;5111390;28;20024;-74
2022/01/12 06:22:04;;;;;;;42.80;17.20;;;;;;;-5.06;100.00;99507.06;5111623;28;20031;-74
2022/01/12 06:24:29;;;;;;;51.00;20.55;;;;;;;-5.15;100.00;99509.84;5111179;28;20109;-74
2022/01/12 06:26:59;;;;;;;49.45;19.77;;;;;;;-5.20;100.00;99517.50;5111266;28;20428;-74
2022/01/12 06:29:38;;;;;;;55.47;21.25;;;;;;;-5.25;100.00;99517.09;5111123;28;20019;-74
2022/01/12 06:32:04;;;;;;;48.85;20.65;;;;;;;-5.39;100.00;99525.69;5106563;28;20028;-74
2022/01/12 06:34:30;;;;;;;46.47;19.45;;;;;;;-5.34;100.00;99531.38;5093755;28;20682;-74
2022/01/12 06:36:55;;;;;;;49.10;19.13;;;;;;;-5.45;100.00;99535.16;5091479;28;20085;-73
2022/01/12 06:39:23;;;;;;;43.45;18.80;;;;;;;-5.36;100.00;99539.53;5098088;28;20341;-74
2022/01/12 06:41:50;;;;;;;44.65;19.33;;;;;;;-5.28;100.00;99536.06;5090217;28;20089;-74
2022/01/12 06:44:20;;;;;;;46.05;18.13;;;;;;;-5.35;100.00;99546.53;5090000;28;20017;-74
2022/01/12 06:46:51;;;;;;;42.20;17.77;;;;;;;-5.26;100.00;99550.91;5089716;28;20028;-75
2022/01/12 06:49:16;;;;;;;44.35;18.60;;;;;;;-5.28;100.00;99549.41;5089819;28;20107;-75
2022/01/12 06:51:43;;;;;;;43.83;17.10;;;;;;;-5.35;100.00;99548.34;5089672;28;20107;-75
2022/01/12 06:54:09;;;;;;;41.00;17.90;;;;;;;-5.23;100.00;99560.47;5090171;28;20028;-74
2022/01/12 06:56:34;;;;;;;42.83;19.17;;;;;;;-5.10;100.00;99566.19;5106188;28;20048;-75
2022/01/12 06:59:00;;;;;;;56.05;22.20;;;;;;;-4.94;100.00;99566.31;5104007;28;20556;-75
2022/01/12 07:01:26;;;;;;;45.53;20.52;;;;;;;-4.54;100.00;99579.88;5096256;28;20503;-75
2022/01/12 07:03:51;;;;;;;45.55;18.20;;;;;;;-3.98;100.00;99581.13;5100250;28;20052;-75
2022/01/12 07:06:20;;;;;;;41.00;17.52;;;;;;;-3.27;100.00;99589.41;5089829;28;20111;-75
2022/01/12 07:08:46;;;;;;;42.28;17.13;;;;;;;-2.80;100.00;99579.66;5089809;28;20062;-75
2022/01/12 07:11:11;;;;;;;51.25;19.02;;;;;;;-2.38;97.73;99584.72;5089878;28;20052;-75
2022/01/12 07:13:37;;;;;;;43.53;16.92;;;;;;;-1.76;92.55;99590.16;5089580;28;20032;-75
2022/01/12 07:16:02;;;;;;;43.17;18.23;;;;;;;-1.50;90.68;99587.16;5090739;28;20058;-76
2022/01/12 07:18:29;;;;;;;35.65;15.75;;;;;;;-0.89;87.25;99596.88;5098475;28;20024;-75
2022/01/12 07:20:56;;;;;;;39.50;16.42;;;;;;;-0.52;84.03;99602.22;5092037;28;20136;-75
2022/01/12 07:23:22;;;;;;;40.88;16.88;;;;;;;-0.22;82.13;99608.47;5089905;28;20020;-75
2022/01/12 07:25:48;;;;;;;37.53;16.80;;;;;;;0.67;78.43;99618.88;5089697;28;20515;-73
2022/01/12 07:28:13;;;;;;;48.25;18.42;;;;;;;0.87;75.11;99622.63;5089547;28;20119;-75
2022/01/12 07:30:39;;;;;;;46.30;18.58;;;;;;;1.34;73.14;99619.31;5097432;28;20027;-76
2022/01/12 07:33:04;;;;;;;42.42;17.05;;;;;;;1.42;72.42;99631.81;5091443;28;20028;-76
2022/01/12 07:35:29;;;;;;;41.10;18.33;;;;;;;2.12;69.18;99635.19;5102730;28;20028;-76
2022/01/12 07:37:55;;;;;;;41.25;19.95;;;;;;;2.58;67.24;99639.94;5089410;28;20036;-76
2022/01/12 07:40:20;;;;;;;40.15;17.88;;;;;;;2.92;65.45;99636.28;5089631;28;20020;-76
2022/01/12 07:42:46;;;;;;;37.67;19.45;;;;;;;3.64;62.86;99642.59;5089483;28;20459;-76
2022/01/12 07:45:12;;;;;;;37.65;17.05;;;;;;;3.99;61.15;99650.47;5090732;28;20020;-76
2022/01/12 07:47:37;;;;;;;36.35;18.70;;;;;;;4.12;60.36;99662.09;5093191;28;20472;-77
2022/01/12 07:50:05;;;;;;;48.28;18.80;;;;;;;4.38;59.81;99655.78;5095885;28;20655;-80
2022/01/12 07:52:31;;;;;;;45.08;20.20;;;;;;;4.75;58.75;99665.03;5099365;28;20035;-76
2022/01/12 07:54:57;;;;;;;41.33;20.23;;;;;;;5.35;57.31;99666.34;5094920;28;20028;-76
2022/01/12 07:57:23;;;;;;;48.15;20.38;;;;;;;5.41;56.34;99679.03;5095030;28;20083;-76
2022/01/12 07:59:48;;;;;;;44.95;19.35;;;;;;;5.94;54.65;99679.47;5104105;28;20059;-76
2022/01/12 08:02:14;;;;;;;43.13;21.23;;;;;;;5.76;54.97;99682.09;5111612;28;20022;-77
2022/01/12 08:04:40;;;;;;;38.95;19.60;;;;;;;5.22;56.10;99680.81;5111169;28;20024;-73
2022/01/12 08:07:06;;;;;;;39.50;19.05;;;;;;;4.87;57.32;99690.41;5110228;28;20484;-71
2022/01/12 08:09:32;;;;;;;42.58;19.45;;;;;;;4.95;57.39;99679.28;5111257;28;20023;-74
2022/01/12 08:11:57;;;;;;;45.88;20.20;;;;;;;5.35;56.69;99679.91;5114951;28;20065;-75
2022/01/12 08:14:22;;;;;;;41.15;20.15;;;;;;;5.31;56.00;99686.81;5111445;28;20034;-74
2022/01/12 08:16:48;;;;;;;54.97;20.88;;;;;;;5.50;55.57;99693.16;5111091;28;20031;-74
2022/01/12 08:19:17;;;;;;;50.50;23.52;;;;;;;5.28;56.19;99682.66;5110416;28;20031;-74
2022/01/12 08:21:43;;;;;;;50.90;24.20;;;;;;;5.49;55.66;99694.19;5112960;28;20077;-73
2022/01/12 08:24:10;;;;;;;48.67;24.35;;;;;;;6.15;53.94;99706.22;5114929;28;20011;-78
2022/01/12 08:26:39;;;;;;;69.82;35.53;;;;;;;6.21;53.31;99715.34;5113189;28;20032;-75
2022/01/12 08:29:04;;;;;;;56.85;31.67;;;;;;;5.96;53.90;99707.22;5111975;28;20492;-75
2022/01/12 08:31:30;;;;;;;59.72;34.42;;;;;;;6.31;53.36;99708.34;5112832;28;20027;-75
2022/01/12 08:33:55;;;;;;;46.42;24.95;;;;;;;6.48;54.67;99717.56;5111962;28;20027;-74
2022/01/12 08:36:21;;;;;;;44.90;19.85;;;;;;;6.07;55.04;99714.66;5111571;28;20106;-73
2022/01/12 08:38:47;;;;;;;38.13;18.63;;;;;;;6.67;53.10;99720.31;5111941;28;20106;-73
2022/01/12 08:41:12;;;;;;;33.95;17.48;;;;;;;7.49;51.16;99711.47;5112070;28;20135;-74
2022/01/12 08:43:38;;;;;;;37.40;18.17;;;;;;;7.48;49.77;99697.06;5106252;28;20058;-74
2022/01/12 08:46:03;;;;;;;33.38;17.85;;;;;;;6.54;51.93;99702.28;5111003;28;20032;-77
2022/01/12 08:48:29;;;;;;;38.90;19.58;;;;;;;7.00;51.05;99701.69;5111178;28;20008;-75
2022/01/12 08:50:55;;;;;;;39.03;20.40;;;;;;;7.73;49.04;99707.78;5111042;28;20433;-74
2022/01/12 08:53:20;;;;;;;47.47;22.08;;;;;;;8.29;47.51;99715.44;5108992;27;20023;-74
2022/01/12 08:55:45;;;;;;;32.97;18.50;;;;;;;8.30;46.87;99714.34;5109576;28;20012;-74
2022/01/12 08:58:11;;;;;;;34.00;17.35;;;;;;;8.57;46.26;99714.72;5110947;28;20043;-75
2022/01/12 09:00:37;;;;;;;29.55;16.00;;;;;;;8.71;45.68;99704.38;5112202;28;20032;-75
2022/01/12 09:03:02;;;;;;;35.75;19.05;;;;;;;9.04;43.62;99701.81;5111958;28;20050;-74
2022/01/12 09:05:30;;;;;;;28.58;16.20;;;;;;;9.02;43.16;99706.69;5110215;28;20024;-76
2022/01/12 09:07:55;;;;;;;36.10;17.15;;;;;;;9.16;42.36;99705.31;5113590;28;20024;-76
2022/01/12 09:10:21;;;;;;;40.42;18.73;;;;;;;8.79;43.15;99707.56;5111466;28;20499;-75
2022/01/12 09:12:47;;;;;;;36.45;18.40;;;;;;;8.79;42.91;99701.28;5111689;28;20028;-75
2022/01/12 09:15:14;;;;;;;32.83;16.33;;;;;;;9.35;42.39;99695.03;5111406;28;20031;-74
2022/01/12 09:17:40;;;;;;;32.03;17.35;;;;;;;7.81;45.18;99706.59;5111454;28;20028;-74
2022/01/12 09:20:08;;;;;;;31.00;16.67;;;;;;;8.66;43.69;99699.63;5106801;28;20671;-74
2022/01/12 09:22:33;;;;;;;31.10;17.48;;;;;;;7.54;46.58;99703.47;5110208;28;20118;-75
2022/01/12 09:24:59;;;;;;;28.63;16.63;;;;;;;8.49;44.85;99691.34;5112546;28;20122;-76
2022/01/12 09:27:24;;;;;;;43.40;19.27;;;;;;;8.45;44.00;99692.91;5109995;28;20020;-77
2022/01/12 09:29:50;;;;;;;40.50;20.05;;;;;;;7.76;45.62;99692.84;5109739;28;20110;-76
2022/01/12 09:32:16;;;;;;;31.23;18.02;;;;;;;8.12;44.58;99697.25;5111076;28;20468;-77
2022/01/12 09:34:41;;;;;;;29.15;16.38;;;;;;;9.21;42.66;99686.28;5111116;28;20098;-78
2022/01/12 09:37:07;;;;;;;29.42;16.58;;;;;;;8.87;42.22;99677.16;5110871;28;21517;-75
2022/01/12 09:39:34;;;;;;;29.55;16.55;;;;;;;8.64;42.83;99681.84;5110131;28;20024;-74
2022/01/12 09:42:02;;;;;;;28.85;16.30;;;;;;;8.06;43.69;99679.97;5110860;28;20063;-77
2022/01/12 09:44:37;;;;;;;27.83;16.95;;;;;;;8.13;44.57;99685.28;5107878;28;20038;-75
2022/01/12 09:47:05;;;;;;;30.75;16.38;;;;;;;8.60;43.73;99682.34;5108744;28;20491;-74
2022/01/12 09:49:30;;;;;;;25.90;15.13;;;;;;;7.92;44.41;99681.28;5111009;28;20019;-74
2022/01/12 09:51:57;;;;;;;34.10;16.40;;;;;;;8.81;43.23;99689.03;5109451;28;20024;-75
2022/01/12 09:54:24;;;;;;;29.60;15.30;;;;;;;8.53;43.64;99687.09;5109251;28;20026;-74
2022/01/12 09:56:51;;;;;;;32.17;16.73;;;;;;;8.96;42.95;99678.44;5109886;28;20051;-75
2022/01/12 09:59:16;;;;;;;26.25;14.88;;;;;;;9.96;39.96;99681.34;5111331;28;20076;-74
2022/01/12 10:01:43;;;;;;;26.58;14.88;;;;;;;9.92;39.58;99674.75;5112780;28;20384;-78
2022/01/12 10:04:12;;;;;;;30.92;15.73;;;;;;;9.77;40.20;99676.41;5108357;28;20387;-75
2022/01/12 10:06:45;;;;;;;34.70;16.45;;;;;;;10.14;38.77;99674.84;5106527;28;20043;-74
2022/01/12 10:09:12;;;;;;;30.10;15.20;;;;;;;9.50;39.44;99668.00;5105729;28;20034;-75
2022/01/12 10:11:48;;;;;;;29.83;13.32;;;;;;;9.04;39.62;99660.84;5105685;28;20428;-76
2022/01/12 10:14:13;;;;;;;;;;;;;;;8.23;41.72;99650.09;5099648;28;20031;-76
2022/01/12 10:16:48;;;;;;;;;;;;;;;8.38;42.23;99658.66;5098138;28;19970;-75
2022/01/12 10:19:31;;;;;;;24.50;13.07;;;;;;;8.26;41.05;99655.91;5107743;28;19920;-75
2022/01/12 10:22:00;;;;;;;27.13;13.80;;;;;;;7.81;43.01;99660.28;5104984;28;20074;-75
2022/01/12 10:24:27;;;;;;;26.52;14.60;;;;;;;7.37;43.63;99646.13;5106631;28;20460;-76
2022/01/12 10:26:53;;;;;;;24.60;12.93;;;;;;;7.78;42.18;99641.69;5101285;28;20380;-76
2022/01/12 10:29:24;;;;;;;29.70;14.45;;;;;;;7.78;42.99;99644.41;5107500;28;20099;-74
2022/01/12 10:31:53;;;;;;;26.67;13.35;;;;;;;8.40;41.81;99630.06;5101405;28;20035;-75
2022/01/12 10:34:28;;;;;;;29.45;13.98;;;;;;;7.23;43.86;99622.91;5103882;28;20035;-75
2022/01/12 10:36:55;;;;;;;28.75;13.63;;;;;;;7.80;42.60;99623.22;5104224;28;20031;-81
2022/01/12 10:39:25;;;;;;;24.63;13.68;;;;;;;7.77;43.06;99631.88;5109677;28;20380;-78
2022/01/12 10:42:06;;;;;;;29.23;14.68;;;;;;;7.99;42.55;99622.03;5105806;28;20487;-77
2022/01/12 10:44:32;;;;;;;28.33;13.38;;;;;;;8.02;43.20;99619.66;5105380;28;20429;-76
2022/01/12 10:47:03;;;;;;;35.05;16.45;;;;;;;7.89;43.53;99619.09;5102094;28;20032;-75
2022/01/12 10:49:30;;;;;;;26.52;12.98;;;;;;;8.53;41.08;99616.19;5103858;28;20032;-77
2022/01/12 10:51:57;;;;;;;25.45;11.68;;;;;;;8.23;41.38;99618.22;5101709;28;20027;-77
2022/01/12 10:54:23;;;;;;;20.85;11.88;;;;;;;7.83;41.66;99617.31;5102623;28;20026;-75
2022/01/12 10:56:49;;;;;;;23.60;11.90;;;;;;;7.41;42.44;99617.38;5103058;28;20044;-75
2022/01/12 10:59:19;;;;;;;23.88;11.60;;;;;;;7.29;43.39;99618.41;5106209;28;20418;-75
2022/01/12 11:01:46;;;;;;;24.20;12.05;;;;;;;7.88;44.52;99622.88;5107853;28;20048;-76
2022/01/12 11:04:12;;;;;;;25.88;11.70;;;;;;;8.16;41.47;99628.41;5105214;28;20024;-75
2022/01/12 11:06:38;;;;;;;24.38;11.45;;;;;;;8.30;40.94;99624.41;5103270;28;20019;-78
2022/01/12 11:09:04;;;;;;;24.02;12.75;;;;;;;7.75;43.00;99620.38;5103301;28;20028;-76
2022/01/12 11:11:29;;;;;;;26.63;12.82;;;;;;;7.54;42.62;99617.16;5104323;28;20388;-76
2022/01/12 11:13:56;;;;;;;24.67;11.35;;;;;;;7.61;42.21;99617.06;5105824;28;20027;-76
2022/01/12 11:16:26;;;;;;;28.13;12.40;;;;;;;7.13;43.60;99609.03;5105562;28;20031;-75
2022/01/12 11:18:54;;;;;;;26.50;13.05;;;;;;;7.31;43.78;99600.78;5102787;28;20120;-76
2022/01/12 11:21:25;;;;;;;27.05;12.85;;;;;;;6.62;44.88;99589.66;5107840;28;20035;-76
2022/01/12 11:23:56;;;;;;;30.27;13.30;;;;;;;6.50;45.53;99578.75;5099087;28;20024;-76
2022/01/12 11:26:27;;;;;;;27.70;12.35;;;;;;;5.25;47.66;99592.75;5089021;28;20027;-75
2022/01/12 11:28:53;;;;;;;23.63;12.60;;;;;;;5.16;47.86;99584.06;5102740;28;20452;-77
2022/01/12 11:31:34;;;;;;;25.85;11.45;;;;;;;5.49;48.14;99574.81;5089441;28;20559;-77
2022/01/12 11:34:00;;;;;;;22.73;11.02;;;;;;;5.88;46.96;99572.59;5104107;28;20023;-77
2022/01/12 11:36:28;;;;;;;21.58;11.27;;;;;;;5.40;47.57;99563.41;5101066;28;20070;-75
2022/01/12 11:39:05;;;;;;;23.70;11.77;;;;;;;5.36;47.87;99571.16;5102686;28;20023;-75
2022/01/12 11:41:35;;;;;;;23.15;11.90;;;;;;;3.76;52.16;99567.03;5102971;28;20074;-74
2022/01/12 11:44:01;;;;;;;26.90;12.43;;;;;;;3.07;54.41;99558.59;5096601;28;21077;-75
2022/01/12 11:46:28;;;;;;;28.17;12.43;;;;;;;4.08;52.15;99562.56;5090971;28;20027;-75
2022/01/12 11:48:54;;;;;;;27.38;10.98;;;;;;;4.35;50.75;99553.31;5089464;28;20032;-75
2022/01/12 11:51:37;;;;;;;26.75;11.80;;;;;;;4.14;51.73;99557.13;5105327;28;20074;-74
2022/01/12 11:54:08;;;;;;;22.42;11.88;;;;;;;4.13;52.07;99547.38;5103842;28;20027;-75
2022/01/12 11:56:34;;;;;;;26.35;11.95;;;;;;;3.67;53.41;99533.13;5103373;28;20130;-75
2022/01/12 11:59:11;;;;;;;22.35;11.27;;;;;;;3.14;55.76;99532.38;5107150;28;20035;-76
2022/01/12 12:02:05;;;;;;;29.30;13.27;;;;;;;2.61;56.99;99545.84;5104890;28;20023;-76
2022/01/12 12:04:32;;;;;;;21.52;11.38;;;;;;;2.35;57.70;99544.97;5094559;28;20040;-76
2022/01/12 12:07:14;;;;;;;31.33;12.50;;;;;;;2.13;60.58;99547.78;5103920;28;20107;-76
2022/01/12 12:09:43;;;;;;;24.77;11.48;;;;;;;2.21;58.85;99546.78;5098894;28;20055;-76
2022/01/12 12:12:36;;;;;;;23.15;10.75;;;;;;;1.76;59.83;99528.53;5093327;28;20096;-74
2022/01/12 12:15:05;;;;;;;23.85;11.38;;;;;;;1.89;61.09;99529.44;5098323;28;20031;-75
2022/01/12 12:17:32;;;;;;;24.20;10.68;;;;;;;2.00;59.23;99536.13;5098430;28;20114;-75
2022/01/12 12:19:59;;;;;;;22.88;11.48;;;;;;;1.97;60.29;99521.16;5094402;28;20027;-75
2022/01/12 12:22:28;;;;;;;23.52;11.40;;;;;;;1.89;60.19;99515.09;5089239;28;20393;-74
2022/01/12 12:25:03;;;;;;;31.77;11.98;;;;;;;1.81;61.08;99513.44;5104478;28;20028;-75
2022/01/12 12:27:31;;;;;;;22.63;10.60;;;;;;;2.07;59.54;99510.81;5099800;28;20043;-76
2022/01/12 12:29:57;;;;;;;27.17;11.40;;;;;;;2.06;59.84;99506.47;5104660;28;20046;-76
2022/01/12 12:32:36;;;;;;;19.20;10.55;;;;;;;1.63;60.61;99502.31;5097983;28;20062;-74
2022/01/12 12:35:09;;;;;;;26.50;10.43;;;;;;;1.87;60.43;99501.00;5093065;28;20031;-75